Latest Weather Observations for Mount Gambier

IDS60801

Issued at 12:35 pm CDT Tuesday 21 October 2014 (issued every 30 minutes, with the page automatically refreshed every 10 minutes)

About weather observations | Map of weather stations | Latest weather observations for SA | Other Formats
Station Details ID: 026021 Name: MOUNT GAMBIER AERO Lat: -37.75 Lon: 140.77 Height: 63.0 m
Data from the previous 72 hours. | See also: Recent months at Mount Gambier
Date/Time
CDT
Temp
°C
App
Temp
°C
Dew
Point
Rel
Hum
%
Delta-T
°C
Wind Press
QNH
hPa
Press
MSL
hPa
Rain
since 9 am
mm
Dir
 
Spd
km/h
Gust
km/h
Spd
kts
Gust
kts
21/12:30pm 25.8 22.9 8.0 32 9.5 NNE 13 24 7 13 1022.7 - 0.0
21/12:00pm 24.6 22.2 8.8 36 8.5 NE 11 19 6 10 1023.2 1023.2 0.0
21/11:30am 23.6 21.2 8.6 38 8.0 N 11 19 6 10 1023.5 - 0.0
21/11:00am 21.8 17.6 7.5 39 7.4 NNE 19 24 10 13 1023.7 - 0.0
21/10:30am 20.9 17.5 7.5 42 6.9 NNE 15 24 8 13 1023.8 - 0.0
21/10:00am 18.1 13.8 6.9 48 5.6 NNE 19 20 10 11 1023.8 - 0.0
21/09:30am 15.9 12.4 7.0 55 4.4 NNE 15 22 8 12 1023.9 - 0.0
21/09:00am 14.2 9.9 7.7 65 3.2 NNE 20 22 11 12 1024.0 1024.0 0.0
21/08:30am 12.0 8.3 8.1 77 1.9 ENE 17 20 9 11 1024.1 - 0.0
21/08:00am 10.0 6.2 7.7 86 1.1 ENE 17 22 9 12 1024.0 - 0.0
21/07:30am 8.9 6.2 7.4 90 0.7 ENE 11 15 6 8 1023.9 - 0.0
21/07:00am 7.5 5.0 6.6 94 0.4 ENE 9 11 5 6 1023.6 - 0.0
21/06:30am 6.8 3.8 5.9 94 0.4 ENE 11 13 6 7 1023.3 - 0.0
21/06:00am 6.6 3.9 5.7 94 0.4 ENE 9 11 5 6 1023.1 1023.1 0.0
21/05:30am 6.7 4.1 6.0 95 0.3 ENE 9 11 5 6 1023.1 - 0.0
21/05:00am 6.7 4.0 5.8 94 0.4 ENE 9 9 5 5 1022.9 - 0.0
21/04:30am 6.9 3.9 6.0 94 0.4 E 11 13 6 7 1023.0 - 0.0
21/04:00am 6.9 4.3 6.2 95 0.3 E 9 9 5 5 1023.3 - 0.0
21/03:30am 7.1 4.5 6.2 94 0.4 ENE 9 9 5 5 1023.5 - 0.0
21/03:00am 7.1 4.5 6.2 94 0.4 E 9 11 5 6 1023.8 1023.8 0.0
21/02:30am 7.3 4.3 6.2 93 0.5 E 11 11 6 6 1024.0 - 0.0
21/02:00am 7.8 4.9 6.5 91 0.6 ENE 11 13 6 7 1024.4 - 0.0
21/01:30am 8.2 5.0 6.7 90 0.7 E 13 13 7 7 1024.7 - 0.0
21/01:00am 8.5 5.6 6.5 87 0.9 E 11 13 6 7 1025.0 - 0.0
21/12:30am 9.4 6.3 7.1 85 1.1 E 13 19 7 10 1025.5 - 0.0
21/12:00am 10.0 6.0 6.8 80 1.5 ESE 17 22 9 12 1025.5 1025.5 0.0
 
Date/Time
CDT
Temp
°C
App
Temp
°C
Dew
Point
Rel
Hum
%
Delta-T
°C
Wind Press
QNH
hPa
Press
MSL
hPa
Rain
since 9 am
mm
Dir
 
Spd
km/h
Gust
km/h
Spd
kts
Gust
kts
20/11:30pm 10.3 5.9 6.7 78 1.7 ESE 19 26 10 14 1025.6 - 0.0
20/11:00pm 10.3 6.3 6.7 78 1.7 E 17 22 9 12 1026.0 - 0.0
20/10:30pm 9.6 6.0 6.8 83 1.3 ESE 15 19 8 10 1026.1 - 0.0
20/10:00pm 9.8 6.2 6.8 81 1.4 SE 15 19 8 10 1026.3 - 0.0
20/09:30pm 10.2 6.2 6.8 79 1.6 SE 17 20 9 11 1026.2 - 0.0
20/09:00pm 10.4 6.9 7.0 79 1.6 SE 15 17 8 9 1026.4 1026.4 0.0
20/08:30pm 11.3 8.1 6.9 74 2.1 SE 13 19 7 10 1026.2 - 0.0
20/08:00pm 12.8 8.2 6.7 66 2.9 ESE 20 28 11 15 1025.7 - 0.0
20/07:30pm 13.7 9.2 6.9 63 3.3 ESE 20 28 11 15 1025.5 - 0.0
20/07:00pm 15.0 10.1 7.0 59 3.9 ESE 22 32 12 17 1025.3 - 0.0
20/06:30pm 16.3 10.3 7.0 54 4.6 ESE 28 35 15 19 1025.0 - 0.0
20/06:00pm 17.7 12.5 7.3 50 5.2 ESE 24 32 13 17 1025.2 1025.2 0.0
20/05:30pm 19.0 13.3 6.8 45 6.1 ESE 26 32 14 17 1025.3 - 0.0
20/05:00pm 19.2 13.6 5.2 39 6.8 E 24 33 13 18 1025.6 - 0.0
20/04:30pm 20.0 14.8 5.3 38 7.2 E 22 30 12 16 1025.8 - 0.0
20/04:00pm 19.8 14.5 5.0 37 7.2 E 22 30 12 16 1026.2 - 0.0
20/03:30pm 20.3 15.1 5.5 38 7.3 ESE 22 32 12 17 1026.3 - 0.0
20/03:00pm 19.7 14.4 5.1 38 7.1 E 22 32 12 17 1026.5 1026.5 0.0
20/02:30pm 19.6 14.7 5.2 38 7.1 E 20 28 11 15 1027.0 - 0.0
20/02:00pm 19.3 14.0 4.8 38 7.0 E 22 30 12 16 1027.4 - 0.0
20/01:30pm 18.8 13.5 5.1 40 6.7 E 22 32 12 17 1027.6 - 0.0
20/01:00pm 17.9 12.2 4.9 42 6.3 E 24 37 13 20 1027.9 - 0.0
20/12:30pm 17.0 12.2 4.5 43 5.9 ESE 19 30 10 16 1028.3 - 0.0
20/12:00pm 16.7 10.1 4.0 43 5.9 E 28 37 15 20 1028.7 1028.7 0.0
20/11:30am 16.0 9.4 4.1 45 5.5 E 28 37 15 20 1029.2 - 0.0
20/11:00am 15.7 9.2 4.5 47 5.3 E 28 35 15 19 1029.7 - 0.0
20/10:30am 14.9 7.9 4.3 49 4.9 E 30 35 16 19 1029.9 - 0.0
20/10:00am 13.8 6.3 3.3 49 4.7 E 32 41 17 22 1029.9 - 0.0
20/09:30am 13.3 5.7 3.7 52 4.3 E 33 43 18 23 1030.0 - 0.0
20/09:00am 12.5 5.0 3.5 54 4.0 E 32 44 17 24 1030.0 1030.0 0.0
20/08:30am 11.4 3.9 3.4 58 3.5 ESE 32 43 17 23 1029.7 - 0.0
20/08:00am 10.3 4.5 4.5 67 2.6 ESE 24 32 13 17 1029.6 - 0.0
20/07:30am 8.9 5.3 5.1 77 1.7 SE 13 17 7 9 1029.2 - 0.0
20/07:00am 7.1 3.1 4.8 85 1.0 SE 15 20 8 11 1028.8 - 0.0
20/06:30am 6.3 2.1 3.9 85 1.0 SE 15 19 8 10 1028.5 - 0.0
20/06:00am 6.6 2.1 4.3 85 1.0 ESE 17 20 9 11 1028.0 1028.0 0.0
20/05:30am 7.1 3.1 4.8 85 1.0 SE 15 19 8 10 1027.9 - 0.0
20/05:00am 7.2 2.9 5.2 87 0.9 SSE 17 26 9 14 1027.9 - 0.0
20/04:30am 7.0 2.7 5.4 89 0.7 SE 17 20 9 11 1027.6 - 0.0
20/04:00am 7.2 2.9 5.4 88 0.8 SE 17 20 9 11 1027.7 - 0.0
20/03:30am 8.0 4.2 6.0 87 0.9 SE 15 19 8 10 1027.8 - 0.0
20/03:00am 8.6 4.9 6.2 85 1.1 SE 15 24 8 13 1027.7 1027.7 0.0
20/02:30am 8.9 4.4 6.1 82 1.3 SE 19 24 10 13 1027.6 - 0.0
20/02:00am 9.2 3.7 6.1 81 1.4 SE 24 32 13 17 1027.6 - 0.0
20/01:30am 9.3 4.8 6.0 80 1.5 SE 19 28 10 15 1027.7 - 0.0
20/01:00am 9.6 4.6 6.6 81 1.4 SE 22 30 12 16 1028.3 - 0.0
20/12:30am 9.9 5.4 7.1 83 1.3 SE 20 30 11 16 1028.4 - 0.0
20/12:00am 10.4 4.6 7.9 84 1.2 SE 28 39 15 21 1028.1 1028.1 0.0
 
Date/Time
CDT
Temp
°C
App
Temp
°C
Dew
Point
Rel
Hum
%
Delta-T
°C
Wind Press
QNH
hPa
Press
MSL
hPa
Rain
since 9 am
mm
Dir
 
Spd
km/h
Gust
km/h
Spd
kts
Gust
kts
19/11:30pm 10.8 5.2 8.6 86 1.1 SE 28 39 15 21 1028.3 - 0.0
19/11:08pm 10.8 6.5 9.2 90 0.8 SE 22 33 12 18 1028.3 - 0.0
19/11:00pm 10.7 6.3 9.1 90 0.8 SE 22 32 12 17 1028.4 - 0.0
19/10:30pm 11.0 7.0 9.2 89 0.9 SSE 20 30 11 16 1028.3 - 0.0
19/10:00pm 11.7 7.6 8.7 82 1.5 SE 20 28 11 15 1028.2 - 0.0
19/09:30pm 11.8 7.7 8.6 81 1.6 SE 20 28 11 15 1028.3 - 0.0
19/09:00pm 11.9 7.9 8.9 82 1.5 SE 20 30 11 16 1027.7 1027.7 0.0
19/08:33pm 11.9 7.6 9.5 85 1.2 SE 22 32 12 17 1027.3 - 0.0
19/08:30pm 12.0 7.3 9.4 84 1.3 SE 24 33 13 18 1027.3 - 0.0
19/08:00pm 12.1 7.8 9.5 84 1.3 SSE 22 33 12 18 1027.1 - 0.0
19/07:46pm 12.3 8.1 9.7 84 1.3 SSE 22 37 12 20 1027.2 - 0.0
19/07:30pm 12.3 6.9 9.5 83 1.4 SSE 28 35 15 19 1025.9 - 0.0
19/07:00pm 13.0 8.0 9.7 80 1.7 S 26 35 14 19 1025.8 - 0.0
19/06:30pm 13.5 7.3 9.4 76 2.1 S 32 41 17 22 1025.9 - 0.0
19/06:00pm 14.1 7.6 8.3 68 2.9 S 32 39 17 21 1025.4 1025.4 0.0
19/05:30pm 15.2 11.3 10.9 75 2.3 SSE 22 28 12 15 1024.7 - 0.0
19/05:00pm 15.0 11.7 10.8 76 2.2 SSE 19 30 10 16 1024.1 - 0.0
19/04:30pm 14.5 9.9 10.9 79 1.9 S 26 33 14 18 1023.9 - 0.0
19/04:00pm 14.7 8.8 10.5 76 2.2 S 32 43 17 23 1023.9 - 0.0
19/03:30pm 15.2 9.5 11.1 76 2.2 S 32 39 17 21 1023.6 - 0.0
19/03:00pm 16.1 10.8 10.0 67 3.2 S 28 37 15 20 1023.6 1023.6 0.0
19/02:30pm 16.0 11.7 10.9 72 2.7 S 24 32 13 17 1023.0 - 0.0
19/02:00pm 15.8 12.2 11.7 76 2.2 S 22 28 12 15 1022.1 - 0.0
19/01:30pm 15.8 11.1 11.9 77 2.1 S 28 33 15 18 1022.4 - 0.0
19/01:00pm 15.6 12.4 11.9 78 2.0 S 20 28 11 15 1022.1 - 0.0
19/12:30pm 15.9 12.4 12.2 78 2.0 S 22 28 12 15 1021.9 - 0.0
19/12:00pm 16.4 11.8 12.4 77 2.2 S 28 35 15 19 1021.7 1021.7 0.0
19/11:30am 16.3 12.5 12.5 78 2.1 S 24 35 13 19 1021.4 - 0.0
19/11:00am 17.6 14.4 13.0 74 2.6 SSW 22 30 12 16 1021.4 - 0.0
19/10:30am 16.3 13.5 13.3 82 1.7 SSW 20 26 11 14 1021.2 - 0.0
19/10:00am 14.4 12.6 13.3 93 0.6 SSW 15 20 8 11 1020.6 - 0.0
19/09:30am 13.9 13.8 13.4 97 0.3 SSE 6 13 3 7 1020.2 - 0.0
19/09:13am 13.1 12.7 12.9 99 0.1 NE 7 11 4 6 1019.8 - 0.0
19/09:00am 12.6 12.1 12.2 97 0.2 SE 6 9 3 5 1019.9 1019.9 0.0
19/08:30am 11.6 10.7 11.4 99 0.1 S 7 11 4 6 1019.9 - 0.0
19/08:00am 10.9 10.8 10.7 99 0.1 SSE 2 7 1 4 1019.7 - 0.0
19/07:30am 10.3 9.2 9.9 97 0.2 S 6 11 3 6 1019.4 - 0.0
19/07:00am 9.7 9.6 9.3 97 0.2 CALM 0 0 0 0 1018.9 - 0.0
19/06:30am 9.1 7.5 8.7 97 0.2 ENE 7 7 4 4 1018.7 - 0.0
19/06:00am 8.8 8.4 8.4 97 0.2 CALM 0 2 0 1 1018.8 1018.8 0.0
19/05:35am 8.9 8.6 8.7 99 0.1 CALM 0 7 0 4 1018.5 - 0.0
19/05:30am 8.6 8.1 8.0 96 0.3 CALM 0 0 0 0 1018.6 - 0.0
19/05:29am 8.4 7.9 8.0 97 0.2 CALM 0 0 0 0 1018.5 - 0.0
19/05:00am 7.7 4.6 7.3 97 0.2 SSW 13 17 7 9 1018.8 - 0.0
19/04:54am 7.4 4.2 7.0 97 0.2 SSW 13 17 7 9 1018.8 - 0.0
19/04:30am 8.2 7.6 7.6 96 0.3 CALM 0 0 0 0 1018.2 - 0.0
19/04:00am 9.3 7.7 8.7 96 0.3 W 7 9 4 5 1018.3 - 0.0
19/03:30am 10.5 8.1 9.9 96 0.3 NNE 13 13 7 7 1018.2 - 0.0
19/03:00am 10.0 8.6 8.8 92 0.6 NNE 6 7 3 4 1018.6 1018.6 0.0
19/02:30am 10.2 8.0 9.2 93 0.5 NE 11 13 6 7 1019.0 - 0.0
19/02:00am 11.2 11.2 9.8 91 0.7 CALM 0 0 0 0 1019.3 - 0.0
19/01:30am 11.1 11.0 9.5 90 0.8 CALM 0 0 0 0 1019.9 - 0.0
19/01:00am 12.4 11.1 10.1 86 1.2 SW 7 9 4 5 1020.1 - 0.0
19/12:30am 13.4 13.5 10.1 80 1.7 CALM 0 7 0 4 1019.9 - 0.0
19/12:00am 14.6 13.6 10.4 76 2.2 WSW 6 7 3 4 1019.8 1019.8 0.0
 
Date/Time
CDT
Temp
°C
App
Temp
°C
Dew
Point
Rel
Hum
%
Delta-T
°C
Wind Press
QNH
hPa
Press
MSL
hPa
Rain
since 9 am
mm
Dir
 
Spd
km/h
Gust
km/h
Spd
kts
Gust
kts
18/11:30pm 13.9 12.4 8.5 70 2.7 SW 6 13 3 7 1019.9 - 0.0
18/11:00pm 13.0 12.0 7.2 68 2.8 ENE 2 7 1 4 1019.4 - 0.0
18/10:30pm 14.3 12.8 9.0 70 2.7 N 7 9 4 5 1019.5 - 0.0
18/10:00pm 16.1 13.2 8.0 58 4.1 W 13 17 7 9 1019.7 - 0.0
18/09:30pm 16.6 13.3 6.6 51 4.9 WNW 13 15 7 8 1019.9 - 0.0
18/09:00pm 17.8 14.3 5.4 44 6.0 W 13 17 7 9 1019.7 1019.7 0.0
18/08:30pm 19.5 14.4 4.3 36 7.3 WNW 20 32 11 17 1019.4 - 0.0
18/08:00pm 21.1 16.0 2.9 30 8.6 WNW 19 26 10 14 1018.8 - 0.0
18/07:30pm 23.3 18.5 0.3 22 10.5 NW 15 19 8 10 1018.5 - 0.0
18/07:00pm 24.2 19.7 -0.5 19 11.2 NW 13 20 7 11 1018.4 - 0.0
18/06:30pm 25.4 19.5 -2.0 16 12.2 NW 19 28 10 15 1018.2 - 0.0
18/06:00pm 26.3 19.3 -3.5 14 13.0 NNW 24 33 13 18 1018.0 1018.0 0.0
18/05:30pm 27.5 19.0 -3.2 13 13.6 NW 32 46 17 25 1018.0 - 0.0
18/05:04pm 28.2 19.7 -6.6 10 14.6 NW 30 48 16 26 1017.9 - 0.0
18/05:00pm 28.2 20.6 -5.4 11 14.4 NW 26 37 14 20 1017.9 - 0.0
18/04:30pm 28.3 20.3 -5.7 10 14.5 NNW 28 37 15 20 1017.7 - 0.0
18/04:09pm 30.0 20.9 -3.7 11 15.1 NNW 35 54 19 29 1017.8 - 0.0
18/04:00pm 30.0 20.4 -4.2 10 15.2 NNW 37 54 20 29 1017.8 - 0.0
18/03:59pm 29.8 20.6 -4.8 10 15.2 NNW 35 54 19 29 1017.7 - 0.0
18/03:30pm 30.0 21.6 -2.1 12 14.8 NNW 32 46 17 25 1017.9 - 0.0
18/03:00pm 29.7 22.8 -0.1 14 14.2 NNW 26 48 14 26 1018.1 1018.1 0.0
18/02:30pm 28.7 22.1 2.0 18 13.1 N 26 39 14 21 1018.3 - 0.0
18/02:00pm 28.9 21.8 1.6 17 13.3 N 28 37 15 20 1018.8 - 0.0
18/01:30pm 26.5 20.0 0.6 18 12.2 N 24 33 13 18 1019.1 - 0.0
18/01:06pm 26.3 18.4 0.9 19 12.0 N 32 50 17 27 1019.0 - 0.0
18/01:00pm 26.4 18.3 0.8 19 12.1 N 33 41 18 22 1019.1 - 0.0

Other Formats:

Comma delimited format used in spreadsheet applications
http://www.bom.gov.au/fwo/IDS60801/IDS60801.94821.axf

JavaScript Object Notation format (JSON) in row-major order
http://www.bom.gov.au/fwo/IDS60801/IDS60801.94821.json